createdAt,value
2023-03-13T00:02:16.000Z,3.7
2023-03-13T00:05:00.000Z,3.3
2023-03-13T00:07:45.000Z,3.5
2023-03-13T00:09:03.000Z,3.2
2023-03-13T00:10:30.000Z,3.4
2023-03-13T00:13:14.000Z,3.1
2023-03-13T00:15:59.000Z,3.5
2023-03-13T00:18:44.000Z,3.9
2023-03-13T00:21:28.000Z,3.9
2023-03-13T00:24:13.000Z,3.6
2023-03-13T00:26:58.000Z,3.6
2023-03-13T00:29:42.000Z,3.5
2023-03-13T00:36:29.000Z,3.2
2023-03-13T00:37:56.000Z,3.3
2023-03-13T00:43:42.000Z,3.1
2023-03-13T00:46:26.000Z,3.5
2023-03-13T00:49:11.000Z,3.3
2023-03-13T00:51:56.000Z,3.8
2023-03-13T00:54:40.000Z,3.3
2023-03-13T00:57:25.000Z,3.7
2023-03-13T01:03:11.000Z,3.9
2023-03-13T01:04:28.000Z,3.6
2023-03-13T01:05:55.000Z,3.7
2023-03-13T01:08:40.000Z,3.8
2023-03-13T01:11:25.000Z,4.2
2023-03-13T01:14:09.000Z,3.7
2023-03-13T01:16:54.000Z,4.3
2023-03-13T01:19:38.000Z,4.4
2023-03-13T01:22:23.000Z,4.9
2023-03-13T01:25:08.000Z,4.6
2023-03-13T01:27:52.000Z,4.7
2023-03-13T01:31:55.000Z,5.2
2023-03-13T01:33:22.000Z,4.9
2023-03-13T01:36:06.000Z,5
2023-03-13T01:38:51.000Z,5.3
2023-03-13T01:41:36.000Z,5.9
2023-03-13T01:44:20.000Z,5.9
2023-03-13T01:47:05.000Z,6.3
2023-03-13T01:49:50.000Z,6.5
2023-03-13T01:52:34.000Z,5.7
2023-03-13T01:55:19.000Z,6.6
2023-03-13T01:58:03.000Z,5.9
2023-03-13T01:59:22.000Z,6.5
2023-03-13T02:00:48.000Z,6.2
2023-03-13T02:06:17.000Z,5.9
2023-03-13T02:09:02.000Z,5.4
2023-03-13T02:11:47.000Z,5.8
2023-03-13T02:14:31.000Z,6.3
2023-03-13T02:17:16.000Z,5.6
2023-03-13T02:20:01.000Z,5.5
2023-03-13T02:22:45.000Z,6.7
2023-03-13T02:25:30.000Z,5.7
2023-03-13T02:28:15.000Z,5.6
2023-03-13T02:30:59.000Z,5.7
2023-03-13T02:33:44.000Z,5.7
2023-03-13T02:36:28.000Z,5.7
2023-03-13T02:39:13.000Z,5.8
2023-03-13T02:42:14.000Z,5.9
2023-03-13T02:44:59.000Z,6.4
2023-03-13T02:47:43.000Z,6.2
2023-03-13T02:50:28.000Z,6.5
2023-03-13T02:53:13.000Z,6.5
2023-03-13T02:55:57.000Z,5.6
2023-03-13T02:57:15.000Z,6.1
2023-03-13T02:58:42.000Z,6.7
2023-03-13T03:01:27.000Z,6.1
2023-03-13T03:04:11.000Z,6.7
2023-03-13T03:06:56.000Z,7.4
2023-03-13T03:09:41.000Z,8.3
2023-03-13T03:12:25.000Z,7.4
2023-03-13T03:15:10.000Z,8.5
2023-03-13T03:17:55.000Z,8.1
2023-03-13T03:20:55.000Z,9.4
2023-03-13T03:23:40.000Z,9.9
2023-03-13T03:24:58.000Z,9.7
2023-03-13T03:26:25.000Z,11.1
2023-03-13T03:29:09.000Z,10.6
2023-03-13T03:31:54.000Z,12.2
2023-03-13T03:34:39.000Z,11.6
2023-03-13T03:37:23.000Z,11.8
2023-03-13T03:40:08.000Z,12.3
2023-03-13T03:45:37.000Z,10.8
2023-03-13T03:48:22.000Z,12.4
2023-03-13T03:51:06.000Z,12.7
2023-03-13T03:52:24.000Z,11.9
2023-03-13T03:53:51.000Z,10.3
2023-03-13T03:56:36.000Z,11.1
2023-03-13T03:59:20.000Z,12.5
2023-03-13T04:04:50.000Z,10.6
2023-03-13T04:07:34.000Z,9.5
2023-03-13T04:10:19.000Z,11.1
2023-03-13T04:13:04.000Z,10.3
2023-03-13T04:15:48.000Z,9.1
2023-03-13T04:18:33.000Z,9.7
2023-03-13T04:21:18.000Z,8.6
2023-03-13T04:24:02.000Z,9.7
2023-03-13T04:26:47.000Z,9.6
2023-03-13T04:29:31.000Z,9.8
2023-03-13T04:32:16.000Z,9.9
2023-03-13T04:35:01.000Z,10.8
2023-03-13T04:37:45.000Z,10.7
2023-03-13T04:40:30.000Z,10.7
2023-03-13T04:43:15.000Z,9.9
2023-03-13T04:45:59.000Z,9.8
2023-03-13T04:47:17.000Z,11
2023-03-13T04:48:44.000Z,10.6
2023-03-13T04:51:29.000Z,10.9
2023-03-13T04:54:13.000Z,10.4
2023-03-13T04:56:58.000Z,10.9
2023-03-13T04:59:43.000Z,11
2023-03-13T05:02:27.000Z,10.6
2023-03-13T05:05:12.000Z,11.5
2023-03-13T05:07:56.000Z,11.7
2023-03-13T05:10:41.000Z,12.5
2023-03-13T05:14:44.000Z,12.2
2023-03-13T05:16:10.000Z,11.9
2023-03-13T05:18:55.000Z,11.8
2023-03-13T05:24:24.000Z,12
2023-03-13T05:27:09.000Z,11.7
2023-03-13T05:29:54.000Z,11.4
2023-03-13T05:32:38.000Z,12.2
2023-03-13T05:35:23.000Z,12.8
2023-03-13T05:38:07.000Z,12.1
2023-03-13T05:42:10.000Z,12.7
2023-03-13T05:43:37.000Z,12.3
2023-03-13T05:46:38.000Z,13.9
2023-03-13T05:52:07.000Z,14.2
2023-03-13T05:57:36.000Z,15.6
2023-03-13T06:00:21.000Z,15.5
2023-03-13T06:03:06.000Z,15.9
2023-03-13T06:05:50.000Z,17.4
2023-03-13T06:08:35.000Z,16.8
2023-03-13T06:09:53.000Z,17.9
2023-03-13T06:11:20.000Z,18.1
2023-03-13T06:14:04.000Z,18.6
2023-03-13T06:16:49.000Z,19.1
2023-03-13T06:19:33.000Z,19.9
2023-03-13T06:22:18.000Z,20.7
2023-03-13T06:25:03.000Z,21.9
2023-03-13T06:27:47.000Z,22.9
2023-03-13T06:30:32.000Z,23.6
2023-03-13T06:33:17.000Z,24.2
2023-03-13T06:36:01.000Z,25
2023-03-13T06:37:19.000Z,24.8
2023-03-13T06:38:46.000Z,25.6
2023-03-13T06:41:31.000Z,25.9
2023-03-13T06:44:15.000Z,25.5
2023-03-13T06:47:16.000Z,25
2023-03-13T06:50:01.000Z,25.3
2023-03-13T06:52:46.000Z,25.5
2023-03-13T06:55:30.000Z,23.7
2023-03-13T06:58:15.000Z,23.2
2023-03-13T07:00:59.000Z,23.2
2023-03-13T07:03:44.000Z,20.8
2023-03-13T07:05:02.000Z,21.5
2023-03-13T07:06:29.000Z,21
2023-03-13T07:09:13.000Z,19.6
2023-03-13T07:11:58.000Z,19.4
2023-03-13T07:17:27.000Z,18.8
2023-03-13T07:20:12.000Z,17
2023-03-13T07:22:57.000Z,17.1
2023-03-13T07:25:41.000Z,15.3
2023-03-13T07:28:26.000Z,14.9
2023-03-13T07:31:11.000Z,15.2
2023-03-13T07:32:28.000Z,13.4
2023-03-13T07:33:55.000Z,12.4
2023-03-13T07:36:40.000Z,11.8
2023-03-13T07:39:24.000Z,12.8
2023-03-13T07:42:09.000Z,10.8
2023-03-13T07:44:54.000Z,10.4
2023-03-13T07:47:38.000Z,9.9
2023-03-13T07:53:08.000Z,10.1
2023-03-13T07:55:52.000Z,8.9
2023-03-13T07:58:37.000Z,8.6
2023-03-13T07:59:55.000Z,9.2
2023-03-13T08:01:22.000Z,9.1
2023-03-13T08:04:06.000Z,9.1
2023-03-13T08:09:35.000Z,6.1
2023-03-13T08:12:20.000Z,6.2
2023-03-13T08:17:49.000Z,5.3
2023-03-13T08:20:34.000Z,5.1
2023-03-13T08:23:19.000Z,4.5
2023-03-13T08:26:03.000Z,4.3
2023-03-13T08:27:21.000Z,4.3
2023-03-13T08:28:48.000Z,4.2
2023-03-13T08:31:33.000Z,4
2023-03-13T08:34:17.000Z,4
2023-03-13T08:37:02.000Z,4.1
2023-03-13T08:42:48.000Z,4.1
2023-03-13T08:45:32.000Z,4.5
2023-03-13T08:51:01.000Z,3.7
2023-03-13T08:53:46.000Z,4
2023-03-13T08:55:04.000Z,4.2
2023-03-13T08:56:31.000Z,3.8
2023-03-13T08:59:15.000Z,4.3
2023-03-13T09:02:00.000Z,3.9
2023-03-13T09:07:29.000Z,4.4
2023-03-13T09:10:14.000Z,4.3
2023-03-13T09:12:59.000Z,4
2023-03-13T09:15:43.000Z,4.4
2023-03-13T09:18:44.000Z,4.1
2023-03-13T09:21:29.000Z,4.1
2023-03-13T09:22:47.000Z,4.4
2023-03-13T09:24:14.000Z,4.3
2023-03-13T09:26:58.000Z,3.9
2023-03-13T09:29:43.000Z,4.3
2023-03-13T09:32:44.000Z,3.5
2023-03-13T09:38:13.000Z,2.5
2023-03-13T09:40:58.000Z,2.3
2023-03-13T09:43:42.000Z,2.4
2023-03-13T09:46:27.000Z,2
2023-03-13T09:49:12.000Z,2.1
2023-03-13T09:50:29.000Z,2
2023-03-13T09:51:56.000Z,2
2023-03-13T09:57:26.000Z,2.3
2023-03-13T10:00:10.000Z,1.9
2023-03-13T10:02:55.000Z,2.1
2023-03-13T10:05:40.000Z,2
2023-03-13T10:08:24.000Z,1.9
2023-03-13T10:11:09.000Z,1.7
2023-03-13T10:13:53.000Z,2.1
2023-03-13T10:16:38.000Z,1.5
2023-03-13T10:17:56.000Z,1.7
2023-03-13T10:19:23.000Z,1.8
2023-03-13T10:22:07.000Z,1.8
2023-03-13T10:24:52.000Z,1.9
2023-03-13T10:27:37.000Z,2.1
2023-03-13T10:30:21.000Z,1.9
2023-03-13T10:33:22.000Z,1.9
2023-03-13T10:36:07.000Z,1.4
2023-03-13T10:41:36.000Z,1.5
2023-03-13T10:44:21.000Z,1.5
2023-03-13T10:45:39.000Z,1.7
2023-03-13T10:47:06.000Z,1.6
2023-03-13T10:49:50.000Z,1.5
2023-03-13T10:52:35.000Z,1.6
2023-03-13T10:55:19.000Z,1.3
2023-03-13T10:58:04.000Z,1.5
2023-03-13T11:00:49.000Z,1.8
2023-03-13T11:03:33.000Z,1.4
2023-03-13T11:06:18.000Z,1.6
2023-03-13T11:09:03.000Z,1.6
2023-03-13T11:11:47.000Z,1.9
2023-03-13T11:13:05.000Z,1.9
2023-03-13T11:14:32.000Z,1.8
2023-03-13T11:17:17.000Z,1.4
2023-03-13T11:20:01.000Z,1.7
2023-03-13T11:22:46.000Z,2.1
2023-03-13T11:25:30.000Z,1.8
2023-03-13T11:28:15.000Z,1.6
2023-03-13T11:31:00.000Z,1.4
2023-03-13T11:33:45.000Z,1.3
2023-03-13T11:36:45.000Z,1.1
2023-03-13T11:39:30.000Z,1.3
2023-03-13T11:40:48.000Z,1.3
2023-03-13T11:42:15.000Z,1.5
2023-03-13T11:47:44.000Z,1.2
2023-03-13T11:50:29.000Z,1.3
2023-03-13T11:55:58.000Z,1.4
2023-03-13T11:58:43.000Z,1.3
2023-03-13T12:01:27.000Z,1.4
2023-03-13T12:04:12.000Z,1.4
2023-03-13T12:06:56.000Z,1.3
2023-03-13T12:08:14.000Z,1.5
2023-03-13T12:12:42.000Z,1.2
2023-03-13T12:15:27.000Z,1.5
2023-03-13T12:18:12.000Z,1.6
2023-03-13T12:21:12.000Z,1.5
2023-03-13T12:23:57.000Z,1.4
2023-03-13T12:26:42.000Z,1.7
2023-03-13T12:29:26.000Z,1.4
2023-03-13T12:32:11.000Z,1.4
2023-03-13T12:34:56.000Z,1.5
2023-03-13T12:36:13.000Z,1.4
2023-03-13T12:40:25.000Z,1.5
2023-03-13T12:43:10.000Z,1.5
2023-03-13T12:45:54.000Z,1.4
2023-03-13T12:48:39.000Z,1.1
2023-03-13T12:51:23.000Z,1.1
2023-03-13T12:54:08.000Z,1.2
2023-03-13T12:56:53.000Z,1.1
2023-03-13T12:59:37.000Z,0.9
2023-03-13T13:02:22.000Z,0.9
2023-03-13T13:03:40.000Z,1
2023-03-13T13:05:07.000Z,0.9
2023-03-13T13:10:36.000Z,0.7
2023-03-13T13:13:21.000Z,0.8
2023-03-13T13:16:05.000Z,0.8
2023-03-13T13:18:50.000Z,0.7
2023-03-13T13:21:35.000Z,0.7
2023-03-13T13:24:19.000Z,0.8
2023-03-13T13:27:04.000Z,0.7
2023-03-13T13:29:48.000Z,0.8
2023-03-13T13:31:06.000Z,0.8
2023-03-13T13:32:33.000Z,0.8
2023-03-13T13:35:34.000Z,0.8
2023-03-13T13:38:19.000Z,0.7
2023-03-13T13:41:03.000Z,0.7
2023-03-13T13:43:48.000Z,0.6
2023-03-13T13:46:33.000Z,0.6
2023-03-13T13:49:17.000Z,0.7
2023-03-13T13:52:02.000Z,0.6
2023-03-13T13:58:49.000Z,0.5
2023-03-13T14:00:16.000Z,0.7
2023-03-13T14:03:01.000Z,0.6
2023-03-13T14:05:45.000Z,0.8
2023-03-13T14:08:46.000Z,0.6
2023-03-13T14:11:31.000Z,0.8
2023-03-13T14:17:00.000Z,1
2023-03-13T14:19:45.000Z,0.7
2023-03-13T14:22:29.000Z,0.7
2023-03-13T14:25:14.000Z,0.7
2023-03-13T14:26:32.000Z,0.8
2023-03-13T14:27:59.000Z,0.7
2023-03-13T14:30:43.000Z,0.7
2023-03-13T14:33:28.000Z,0.6
2023-03-13T14:36:13.000Z,0.7
2023-03-13T14:38:57.000Z,0.7
2023-03-13T14:41:42.000Z,0.7
2023-03-13T14:44:26.000Z,0.8
2023-03-13T14:47:11.000Z,0.6
2023-03-13T14:49:56.000Z,0.6
2023-03-13T14:52:40.000Z,0.7
2023-03-13T14:58:10.000Z,0.7
2023-03-13T15:00:54.000Z,0.4
2023-03-13T15:03:39.000Z,0.7
2023-03-13T15:06:24.000Z,0.5
2023-03-13T15:09:25.000Z,0.6
2023-03-13T15:12:09.000Z,0.7
2023-03-13T15:14:54.000Z,0.6
2023-03-13T15:17:39.000Z,0.7
2023-03-13T15:20:23.000Z,0.6
2023-03-13T15:21:41.000Z,0.6
2023-03-13T15:23:08.000Z,0.6
2023-03-13T15:25:52.000Z,0.6
2023-03-13T15:28:37.000Z,0.8
2023-03-13T15:31:22.000Z,0.5
2023-03-13T15:34:06.000Z,0.7
2023-03-13T15:36:51.000Z,0.7
2023-03-13T15:39:36.000Z,0.9
2023-03-13T15:42:20.000Z,0.6
2023-03-13T15:45:05.000Z,0.6
2023-03-13T15:47:50.000Z,0.6
2023-03-13T15:50:34.000Z,0.6
2023-03-13T15:53:19.000Z,0.5
2023-03-13T15:56:04.000Z,0.8
2023-03-13T15:58:48.000Z,0.7
2023-03-13T16:01:33.000Z,0.5
2023-03-13T16:07:02.000Z,0.6
2023-03-13T16:09:47.000Z,0.5
2023-03-13T16:12:31.000Z,0.6
2023-03-13T16:15:16.000Z,0.6
2023-03-13T16:16:34.000Z,0.6
2023-03-13T16:18:01.000Z,0.7
2023-03-13T16:20:45.000Z,0.7
2023-03-13T16:23:30.000Z,1.5
2023-03-13T16:26:15.000Z,0.9
2023-03-13T16:28:59.000Z,1.3
2023-03-13T16:31:44.000Z,1.5
2023-03-13T16:34:28.000Z,2.2
2023-03-13T16:37:13.000Z,1.7
2023-03-13T16:39:58.000Z,1.8
2023-03-13T16:42:42.000Z,1.9
2023-03-13T16:44:00.000Z,1.5
2023-03-13T16:45:27.000Z,1.3
2023-03-13T16:48:12.000Z,1
2023-03-13T16:50:56.000Z,1.3
2023-03-13T16:53:41.000Z,1.5
2023-03-13T17:02:11.000Z,1
2023-03-13T17:04:56.000Z,1
2023-03-13T17:07:41.000Z,1.1
2023-03-13T17:10:25.000Z,1.2
2023-03-13T17:13:10.000Z,1.1
2023-03-13T17:15:54.000Z,1.1
2023-03-13T17:18:39.000Z,1.1
2023-03-13T17:24:08.000Z,1.3
2023-03-13T17:26:53.000Z,1
2023-03-13T17:35:07.000Z,1.1
2023-03-13T17:37:52.000Z,1
2023-03-13T17:39:09.000Z,1.3
2023-03-13T17:40:36.000Z,0.9
2023-03-13T17:43:21.000Z,1
2023-03-13T17:46:06.000Z,1
2023-03-13T17:48:50.000Z,1.4
2023-03-13T17:51:35.000Z,1.1
2023-03-13T17:54:19.000Z,1.1
2023-03-13T17:59:32.000Z,1.2
2023-03-13T18:02:17.000Z,1.1
2023-03-13T18:05:02.000Z,1.3
2023-03-13T18:06:36.000Z,1.4
2023-03-13T18:07:53.000Z,1.3
2023-03-13T18:10:38.000Z,1.2
2023-03-13T18:13:23.000Z,1.1
2023-03-13T18:16:07.000Z,1.2
2023-03-13T18:18:52.000Z,1.1
2023-03-13T18:21:37.000Z,1.3
2023-03-13T18:24:21.000Z,1.4
2023-03-13T18:27:06.000Z,1.3
2023-03-13T18:29:51.000Z,1.1
2023-03-13T18:32:35.000Z,1.3
2023-03-13T18:34:02.000Z,1.2
2023-03-13T18:35:36.000Z,1.3
2023-03-13T18:38:21.000Z,1.4
2023-03-13T18:43:50.000Z,1.3
2023-03-13T18:46:35.000Z,1.3
2023-03-13T18:49:19.000Z,1.6
2023-03-13T18:52:04.000Z,1.4
2023-03-13T18:54:49.000Z,1.4
2023-03-13T18:57:33.000Z,1.6
2023-03-13T19:00:18.000Z,1.3
2023-03-13T19:01:36.000Z,1.4
2023-03-13T19:03:03.000Z,1.3
2023-03-13T19:05:47.000Z,1.7
2023-03-13T19:08:32.000Z,1.4
2023-03-13T19:11:17.000Z,1.4
2023-03-13T19:14:01.000Z,1.4
2023-03-13T19:19:30.000Z,1.5
2023-03-13T19:22:15.000Z,1.4
2023-03-13T19:25:00.000Z,1.7
2023-03-13T19:27:44.000Z,1.4
2023-03-13T19:29:02.000Z,1.4
2023-03-13T19:30:29.000Z,1.5
2023-03-13T19:33:14.000Z,1.3
2023-03-13T19:38:43.000Z,1.7
2023-03-13T19:41:28.000Z,1.5
2023-03-13T19:44:12.000Z,1.9
2023-03-13T19:46:57.000Z,1.6
2023-03-13T19:49:42.000Z,1.8
2023-03-13T19:52:26.000Z,1.8
2023-03-13T19:55:11.000Z,1.4
2023-03-13T19:56:29.000Z,1.6
2023-03-13T19:57:55.000Z,1.5
2023-03-13T20:00:40.000Z,1.7
2023-03-13T20:03:25.000Z,1.5
2023-03-13T20:06:09.000Z,1.7
2023-03-13T20:08:54.000Z,1.4
2023-03-13T20:11:39.000Z,1.5
2023-03-13T20:14:23.000Z,1.6
2023-03-13T20:17:08.000Z,1.5
2023-03-13T20:19:53.000Z,1.4
2023-03-13T20:22:37.000Z,1.3
2023-03-13T20:23:55.000Z,1.5
2023-03-13T20:25:22.000Z,1.5
2023-03-13T20:28:07.000Z,1.7
2023-03-13T20:30:51.000Z,1.3
2023-03-13T20:33:36.000Z,1.7
2023-03-13T20:36:20.000Z,1.8
2023-03-13T20:39:05.000Z,1.6
2023-03-13T20:41:50.000Z,1.9
2023-03-13T20:44:34.000Z,1.6
2023-03-13T20:47:19.000Z,1.4
2023-03-13T20:50:04.000Z,1.6
2023-03-13T20:51:21.000Z,1.7
2023-03-13T20:52:48.000Z,1.9
2023-03-13T20:55:33.000Z,1.6
2023-03-13T20:58:18.000Z,1.6
2023-03-13T21:01:02.000Z,1.7
2023-03-13T21:03:47.000Z,1.6
2023-03-13T21:06:31.000Z,1.7
2023-03-13T21:09:16.000Z,1.8
2023-03-13T21:12:01.000Z,1.8
2023-03-13T21:14:45.000Z,1.4
2023-03-13T21:17:30.000Z,1.9
2023-03-13T21:18:48.000Z,1.7
2023-03-13T21:20:15.000Z,2.1
2023-03-13T21:22:59.000Z,1.7
2023-03-13T21:28:29.000Z,1.9
2023-03-13T21:31:13.000Z,1.6
2023-03-13T21:33:58.000Z,1.9
2023-03-13T21:36:43.000Z,1.9
2023-03-13T21:42:12.000Z,1.7
2023-03-13T21:44:56.000Z,1.6
2023-03-13T21:46:14.000Z,1.7
2023-03-13T21:47:41.000Z,1.9
2023-03-13T21:50:26.000Z,1.8
2023-03-13T21:53:10.000Z,1.5
2023-03-13T21:55:55.000Z,1.6
2023-03-13T21:58:40.000Z,1.8
2023-03-13T22:01:24.000Z,1.5
2023-03-13T22:04:09.000Z,1.6
2023-03-13T22:06:54.000Z,1.9
2023-03-13T22:09:38.000Z,1.5
2023-03-13T22:12:23.000Z,2
2023-03-13T22:13:41.000Z,1.9
2023-03-13T22:15:07.000Z,1.8
2023-03-13T22:17:52.000Z,1.8
2023-03-13T22:20:37.000Z,1.8
2023-03-13T22:23:21.000Z,1.7
2023-03-13T22:26:06.000Z,1.9
2023-03-13T22:28:51.000Z,1.7
2023-03-13T22:31:35.000Z,2
2023-03-13T22:34:20.000Z,1.7
2023-03-13T22:37:05.000Z,2
2023-03-13T22:39:49.000Z,1.9
2023-03-13T22:41:07.000Z,1.9
2023-03-13T22:42:34.000Z,2.1
2023-03-13T22:45:19.000Z,1.9
2023-03-13T22:48:03.000Z,1.9
2023-03-13T22:50:48.000Z,1.9
2023-03-13T22:53:32.000Z,1.8
2023-03-13T22:56:17.000Z,2
2023-03-13T22:59:02.000Z,2.1
2023-03-13T23:01:46.000Z,1.8
2023-03-13T23:04:31.000Z,1.8
2023-03-13T23:07:16.000Z,1.7
2023-03-13T23:08:34.000Z,1.9
2023-03-13T23:10:00.000Z,1.9
2023-03-13T23:12:45.000Z,1.7
2023-03-13T23:18:14.000Z,1.9
2023-03-13T23:20:59.000Z,1.5
2023-03-13T23:23:43.000Z,1.9
2023-03-13T23:26:28.000Z,1.5
2023-03-13T23:29:13.000Z,1.4
2023-03-13T23:31:57.000Z,1.9
2023-03-13T23:34:42.000Z,1.4
2023-03-13T23:36:00.000Z,1.8
2023-03-13T23:37:27.000Z,1.6
2023-03-13T23:40:11.000Z,1.7
2023-03-13T23:42:56.000Z,1.4
2023-03-13T23:45:41.000Z,1.4
2023-03-13T23:48:25.000Z,1.6
2023-03-13T23:51:10.000Z,1.7
2023-03-13T23:53:55.000Z,1.4
2023-03-13T23:56:39.000Z,1.6
2023-03-13T23:59:24.000Z,1.5
